createdAt,value
2022-11-05T00:02:17.871Z,89.23
2022-11-05T00:05:05.049Z,89.37
2022-11-05T00:07:56.647Z,89.36
2022-11-05T00:10:27.774Z,89.50
2022-11-05T00:13:16.313Z,89.57
2022-11-05T00:16:04.287Z,89.65
2022-11-05T00:18:32.855Z,89.81
2022-11-05T00:21:01.288Z,89.89
2022-11-05T00:23:48.052Z,89.94
2022-11-05T00:26:16.613Z,90.00
2022-11-05T00:28:45.262Z,90.36
2022-11-05T00:31:14.912Z,91.84
2022-11-05T00:33:43.992Z,93.40
2022-11-05T00:36:12.735Z,94.64
2022-11-05T00:38:41.430Z,95.37
2022-11-05T00:41:09.918Z,96.24
2022-11-05T00:43:56.913Z,97.11
2022-11-05T00:46:25.547Z,97.80
2022-11-05T00:49:12.439Z,98.29
2022-11-05T00:51:41.161Z,98.92
2022-11-05T00:54:09.654Z,99.22
2022-11-05T00:56:38.455Z,99.53
2022-11-05T00:59:07.343Z,99.62
2022-11-05T01:01:36.254Z,99.90
2022-11-05T01:04:05.558Z,99.92
2022-11-05T01:06:34.095Z,99.88
2022-11-05T01:09:02.674Z,99.82
2022-11-05T01:11:34.650Z,99.62
2022-11-05T01:14:13.370Z,99.59
2022-11-05T01:16:42.347Z,99.75
2022-11-05T01:19:11.540Z,99.78
2022-11-05T01:21:40.345Z,99.47
2022-11-05T01:24:10.973Z,99.76
2022-11-05T01:26:42.199Z,99.62
2022-11-05T01:29:11.524Z,99.45
2022-11-05T01:31:40.247Z,99.51
2022-11-05T01:34:09.002Z,99.60
2022-11-05T01:36:44.702Z,99.39
2022-11-05T01:39:13.842Z,99.26
2022-11-05T01:41:42.528Z,99.35
2022-11-05T01:44:43.563Z,99.48
2022-11-05T01:47:27.768Z,99.55
2022-11-05T01:50:04.287Z,99.19
2022-11-05T01:52:34.674Z,99.57
2022-11-05T01:55:09.754Z,99.61
2022-11-05T01:57:38.513Z,99.58
2022-11-05T02:00:09.992Z,99.94
2022-11-05T02:02:45.236Z,99.92
2022-11-05T02:05:14.844Z,99.87
2022-11-05T02:07:45.713Z,99.98
2022-11-05T02:10:17.362Z,99.94
2022-11-05T02:12:47.577Z,99.96
2022-11-05T02:15:22.773Z,99.77
2022-11-05T02:18:05.735Z,99.74
2022-11-05T02:20:41.537Z,99.85
2022-11-05T02:23:54.319Z,99.89
2022-11-05T02:27:01.244Z,99.87
2022-11-05T02:30:19.394Z,99.84
2022-11-05T02:33:10.131Z,100.00
2022-11-05T02:35:54.823Z,99.99
2022-11-05T02:38:38.937Z,99.99
2022-11-05T02:41:14.699Z,100.00
2022-11-05T02:43:53.647Z,100.00
2022-11-05T02:46:33.746Z,100.00
2022-11-05T02:49:14.340Z,100.00
2022-11-05T02:51:51.262Z,100.00
2022-11-05T02:54:25.414Z,100.00
2022-11-05T02:56:58.902Z,100.00
2022-11-05T02:59:27.450Z,100.00
2022-11-05T03:01:58.035Z,100.00
2022-11-05T03:04:30.437Z,100.00
2022-11-05T03:07:19.118Z,99.97
2022-11-05T03:10:05.441Z,99.99
2022-11-05T03:12:46.607Z,100.00
2022-11-05T03:15:31.613Z,100.00
2022-11-05T03:18:10.382Z,100.00
2022-11-05T03:20:47.041Z,100.00
2022-11-05T03:23:25.738Z,100.00
2022-11-05T03:26:01.743Z,100.00
2022-11-05T03:28:35.583Z,100.00
2022-11-05T03:31:06.287Z,100.00
2022-11-05T03:33:39.013Z,100.00
2022-11-05T03:36:15.934Z,100.00
2022-11-05T03:38:51.503Z,100.00
2022-11-05T03:41:23.448Z,100.00
2022-11-05T03:43:57.913Z,100.00
2022-11-05T03:46:31.533Z,100.00
2022-11-05T03:49:04.342Z,100.00
2022-11-05T03:51:39.273Z,100.00
2022-11-05T03:54:08.966Z,100.00
2022-11-05T03:56:44.558Z,100.00
2022-11-05T03:59:13.668Z,100.00
2022-11-05T04:01:42.560Z,100.00
2022-11-05T04:04:11.249Z,100.00
2022-11-05T04:06:58.535Z,100.00
2022-11-05T04:09:45.422Z,100.00
2022-11-05T04:12:32.014Z,100.00
2022-11-05T04:15:00.912Z,100.00
2022-11-05T04:17:29.686Z,100.00
2022-11-05T04:20:16.359Z,100.00
2022-11-05T04:23:03.747Z,100.00
2022-11-05T04:25:32.601Z,100.00
2022-11-05T04:28:01.123Z,100.00
2022-11-05T04:30:29.906Z,100.00
2022-11-05T04:33:06.870Z,100.00
2022-11-05T04:35:37.549Z,100.00
2022-11-05T04:38:08.452Z,100.00
2022-11-05T04:40:37.530Z,100.00
2022-11-05T04:43:12.018Z,100.00
2022-11-05T04:45:43.804Z,100.00
2022-11-05T04:48:12.590Z,100.00
2022-11-05T04:50:41.291Z,100.00
2022-11-05T04:53:10.140Z,100.00
2022-11-05T04:55:39.234Z,100.00
2022-11-05T04:58:08.754Z,100.00
2022-11-05T05:00:37.524Z,100.00
2022-11-05T05:03:06.430Z,100.00
2022-11-05T05:05:35.014Z,100.00
2022-11-05T05:08:04.817Z,100.00
2022-11-05T05:10:33.269Z,100.00
2022-11-05T05:13:04.326Z,100.00
2022-11-05T05:15:32.924Z,100.00
2022-11-05T05:18:01.516Z,100.00
2022-11-05T05:20:48.532Z,100.00
2022-11-05T05:23:17.591Z,100.00
2022-11-05T05:25:46.042Z,100.00
2022-11-05T05:28:14.686Z,100.00
2022-11-05T05:30:43.381Z,100.00
2022-11-05T05:33:14.337Z,100.00
2022-11-05T05:35:43.202Z,100.00
2022-11-05T05:38:11.831Z,100.00
2022-11-05T05:40:40.393Z,100.00
2022-11-05T05:43:11.594Z,100.00
2022-11-05T05:45:40.361Z,100.00
2022-11-05T05:48:09.110Z,100.00
2022-11-05T05:50:37.804Z,100.00
2022-11-05T05:53:09.241Z,100.00
2022-11-05T05:55:38.206Z,100.00
2022-11-05T05:58:06.996Z,100.00
2022-11-05T06:00:35.922Z,100.00
2022-11-05T06:03:05.686Z,100.00
2022-11-05T06:05:36.635Z,100.00
2022-11-05T06:08:06.038Z,100.00
2022-11-05T06:10:34.677Z,100.00
2022-11-05T06:13:03.832Z,100.00
2022-11-05T06:15:35.923Z,100.00
2022-11-05T06:18:05.107Z,100.00
2022-11-05T06:20:33.500Z,100.00
2022-11-05T06:23:02.244Z,100.00
2022-11-05T06:25:30.897Z,100.00
2022-11-05T06:28:00.039Z,100.00
2022-11-05T06:30:28.426Z,100.00
2022-11-05T06:33:01.244Z,100.00
2022-11-05T06:35:30.167Z,100.00
2022-11-05T06:38:01.166Z,100.00
2022-11-05T06:40:29.905Z,100.00
2022-11-05T06:42:58.393Z,100.00
2022-11-05T06:45:26.966Z,100.00
2022-11-05T06:48:02.381Z,100.00
2022-11-05T06:50:31.110Z,100.00
2022-11-05T06:53:01.410Z,100.00
2022-11-05T06:55:30.893Z,100.00
2022-11-05T06:57:59.840Z,100.00
2022-11-05T07:00:31.239Z,100.00
2022-11-05T07:03:05.612Z,100.00
2022-11-05T07:05:37.217Z,100.00
2022-11-05T07:08:06.228Z,100.00
2022-11-05T07:10:34.839Z,100.00
2022-11-05T07:13:07.814Z,100.00
2022-11-05T07:15:37.609Z,100.00
2022-11-05T07:18:06.985Z,100.00
2022-11-05T07:20:35.716Z,100.00
2022-11-05T07:23:06.866Z,100.00
2022-11-05T07:25:36.792Z,100.00
2022-11-05T07:28:06.402Z,100.00
2022-11-05T07:30:35.942Z,100.00
2022-11-05T07:33:04.747Z,100.00
2022-11-05T07:35:33.507Z,100.00
2022-11-05T07:38:02.300Z,100.00
2022-11-05T07:40:31.071Z,100.00
2022-11-05T07:43:01.050Z,100.00
2022-11-05T07:45:31.768Z,100.00
2022-11-05T07:48:01.456Z,100.00
2022-11-05T07:50:32.653Z,100.00
2022-11-05T07:55:45.523Z,100.00
2022-11-05T07:58:14.219Z,100.00
2022-11-05T08:00:43.152Z,100.00
2022-11-05T08:03:17.611Z,100.00
2022-11-05T08:05:47.660Z,100.00
2022-11-05T08:08:20.231Z,100.00
2022-11-05T08:10:48.813Z,100.00
2022-11-05T08:13:17.977Z,100.00
2022-11-05T08:15:46.701Z,100.00
2022-11-05T08:18:17.028Z,100.00
2022-11-05T08:20:46.894Z,100.00
2022-11-05T08:23:15.753Z,100.00
2022-11-05T08:25:47.593Z,100.00
2022-11-05T08:28:16.934Z,100.00
2022-11-05T08:30:49.855Z,100.00
2022-11-05T08:33:20.186Z,100.00
2022-11-05T08:35:49.167Z,100.00
2022-11-05T08:38:19.510Z,100.00
2022-11-05T08:40:55.907Z,100.00
2022-11-05T08:43:24.741Z,100.00
2022-11-05T08:45:54.336Z,100.00
2022-11-05T08:48:22.922Z,100.00
2022-11-05T08:50:51.747Z,100.00
2022-11-05T08:53:20.678Z,100.00
2022-11-05T08:55:50.946Z,100.00
2022-11-05T08:58:20.021Z,100.00
2022-11-05T09:00:49.694Z,100.00
2022-11-05T09:03:18.756Z,100.00
2022-11-05T09:05:47.398Z,100.00
2022-11-05T09:08:17.683Z,100.00
2022-11-05T09:10:47.622Z,100.00
2022-11-05T09:13:20.015Z,100.00
2022-11-05T09:15:49.722Z,100.00
2022-11-05T09:18:19.672Z,100.00
2022-11-05T09:20:48.684Z,100.00
2022-11-05T09:23:17.937Z,100.00
2022-11-05T09:25:47.453Z,100.00
2022-11-05T09:28:21.760Z,100.00
2022-11-05T09:30:53.222Z,100.00
2022-11-05T09:33:24.006Z,100.00
2022-11-05T09:35:53.611Z,100.00
2022-11-05T09:38:22.167Z,100.00
2022-11-05T09:40:59.401Z,100.00
2022-11-05T09:43:34.286Z,100.00
2022-11-05T09:46:11.636Z,100.00
2022-11-05T09:48:42.004Z,100.00
2022-11-05T09:51:17.988Z,100.00
2022-11-05T09:53:50.115Z,100.00
2022-11-05T09:56:24.772Z,100.00
2022-11-05T09:58:58.851Z,100.00
2022-11-05T10:01:31.620Z,100.00
2022-11-05T10:04:05.986Z,100.00
2022-11-05T10:06:36.725Z,100.00
2022-11-05T10:09:12.768Z,100.00
2022-11-05T10:11:45.938Z,100.00
2022-11-05T10:14:19.776Z,100.00
2022-11-05T10:16:56.247Z,100.00
2022-11-05T10:19:28.206Z,100.00
2022-11-05T10:22:08.832Z,100.00
2022-11-05T10:24:40.623Z,100.00
2022-11-05T10:27:16.616Z,100.00
2022-11-05T10:29:46.688Z,100.00
2022-11-05T10:32:23.322Z,100.00
2022-11-05T10:34:54.086Z,100.00
2022-11-05T10:37:24.380Z,100.00
2022-11-05T10:39:53.354Z,100.00
2022-11-05T10:42:47.225Z,100.00
2022-11-05T10:45:30.361Z,100.00
2022-11-05T10:48:15.949Z,100.00
2022-11-05T10:50:45.470Z,100.00
2022-11-05T10:53:16.507Z,100.00
2022-11-05T10:55:47.516Z,100.00
2022-11-05T10:58:21.273Z,100.00
2022-11-05T11:01:04.591Z,100.00
2022-11-05T11:03:40.032Z,100.00
2022-11-05T11:06:19.402Z,100.00
2022-11-05T11:08:49.094Z,100.00
2022-11-05T11:11:29.445Z,100.00
2022-11-05T11:14:02.592Z,100.00
2022-11-05T11:16:37.367Z,100.00
2022-11-05T11:19:26.579Z,100.00
2022-11-05T11:22:19.382Z,100.00
2022-11-05T11:24:50.392Z,100.00
2022-11-05T11:27:24.506Z,100.00
2022-11-05T11:29:58.451Z,100.00
2022-11-05T11:32:33.067Z,100.00
2022-11-05T11:35:02.407Z,100.00
2022-11-05T11:37:36.673Z,100.00
2022-11-05T11:40:15.826Z,100.00
2022-11-05T11:42:48.932Z,100.00
2022-11-05T11:45:20.738Z,100.00
2022-11-05T11:47:50.381Z,100.00
2022-11-05T11:50:38.393Z,100.00
2022-11-05T11:53:28.410Z,100.00
2022-11-05T11:56:06.040Z,100.00
2022-11-05T11:58:40.965Z,100.00
2022-11-05T12:01:48.297Z,100.00
2022-11-05T12:04:35.751Z,100.00
2022-11-05T12:07:17.955Z,100.00
2022-11-05T12:10:00.551Z,100.00
2022-11-05T12:12:40.380Z,100.00
2022-11-05T12:15:27.580Z,100.00
2022-11-05T12:18:01.557Z,100.00
2022-11-05T12:20:48.413Z,100.00
2022-11-05T12:23:33.733Z,100.00
2022-11-05T12:26:13.197Z,100.00
2022-11-05T12:29:18.885Z,100.00
2022-11-05T12:31:59.231Z,100.00
2022-11-05T12:34:42.826Z,100.00
2022-11-05T12:37:25.459Z,100.00
2022-11-05T12:40:10.611Z,100.00
2022-11-05T12:42:53.030Z,100.00
2022-11-05T12:45:43.603Z,100.00
2022-11-05T12:48:30.258Z,100.00
2022-11-05T12:51:13.843Z,100.00
2022-11-05T12:53:54.436Z,100.00
2022-11-05T12:56:32.231Z,100.00
2022-11-05T12:59:12.778Z,100.00
2022-11-05T13:01:46.516Z,100.00
2022-11-05T13:04:31.071Z,100.00
2022-11-05T13:07:06.518Z,100.00
2022-11-05T13:09:41.408Z,100.00
2022-11-05T13:12:13.298Z,100.00
2022-11-05T13:14:45.395Z,100.00
2022-11-05T13:17:17.513Z,100.00
2022-11-05T13:19:52.626Z,100.00
2022-11-05T13:22:36.345Z,100.00
2022-11-05T13:25:13.826Z,100.00
2022-11-05T13:27:53.253Z,100.00
2022-11-05T13:30:24.542Z,100.00
2022-11-05T13:33:05.650Z,100.00
2022-11-05T13:35:43.180Z,100.00
2022-11-05T13:38:40.847Z,100.00
2022-11-05T13:41:24.421Z,100.00
2022-11-05T13:44:11.917Z,100.00
2022-11-05T13:47:05.836Z,100.00
2022-11-05T13:49:57.953Z,100.00
2022-11-05T13:52:55.180Z,100.00
2022-11-05T13:55:48.836Z,100.00
2022-11-05T13:58:59.171Z,100.00
2022-11-05T14:01:42.808Z,100.00
2022-11-05T14:04:22.809Z,100.00
2022-11-05T14:06:52.336Z,100.00
2022-11-05T14:09:26.790Z,100.00
2022-11-05T14:11:57.949Z,100.00
2022-11-05T14:14:35.583Z,100.00
2022-11-05T14:17:28.323Z,100.00
2022-11-05T14:20:25.201Z,100.00
2022-11-05T14:22:53.790Z,100.00
2022-11-05T14:26:00.848Z,100.00
2022-11-05T14:28:43.880Z,100.00
2022-11-05T14:31:54.563Z,100.00
2022-11-05T14:34:40.860Z,100.00
2022-11-05T14:37:23.445Z,100.00
2022-11-05T14:39:54.158Z,100.00
2022-11-05T14:42:26.417Z,100.00
2022-11-05T14:45:03.752Z,100.00
2022-11-05T14:47:35.709Z,100.00
2022-11-05T14:50:17.679Z,100.00
2022-11-05T14:52:59.206Z,100.00
2022-11-05T14:55:36.972Z,100.00
2022-11-05T14:58:31.408Z,100.00
2022-11-05T15:01:02.239Z,100.00
2022-11-05T15:04:03.035Z,100.00
2022-11-05T15:06:37.486Z,100.00
2022-11-05T15:09:26.530Z,100.00
2022-11-05T15:12:11.116Z,100.00
2022-11-05T15:14:49.087Z,100.00
2022-11-05T15:17:29.222Z,100.00
2022-11-05T15:20:08.067Z,100.00
2022-11-05T15:22:40.462Z,100.00
2022-11-05T15:25:18.394Z,100.00
2022-11-05T15:28:04.857Z,100.00
2022-11-05T15:30:33.809Z,100.00
2022-11-05T15:33:19.977Z,100.00
2022-11-05T15:35:49.268Z,100.00
2022-11-05T15:38:30.064Z,100.00
2022-11-05T15:41:05.428Z,100.00
2022-11-05T15:43:47.557Z,100.00
2022-11-05T15:46:19.481Z,100.00
2022-11-05T15:48:52.169Z,100.00
2022-11-05T15:51:24.039Z,100.00
2022-11-05T15:57:27.413Z,100.00
2022-11-05T16:01:06.492Z,100.00
2022-11-05T16:03:51.380Z,100.00
2022-11-05T16:06:24.832Z,100.00
2022-11-05T16:09:16.452Z,100.00
2022-11-05T16:12:22.689Z,100.00
2022-11-05T16:15:03.158Z,100.00
2022-11-05T16:17:45.275Z,100.00
2022-11-05T16:20:32.211Z,100.00
2022-11-05T16:23:03.678Z,100.00
2022-11-05T16:25:42.939Z,100.00
2022-11-05T16:28:22.484Z,100.00
2022-11-05T16:31:01.624Z,100.00
2022-11-05T16:33:40.262Z,100.00
2022-11-05T16:36:10.158Z,100.00
2022-11-05T16:38:38.925Z,100.00
2022-11-05T16:41:12.520Z,100.00
2022-11-05T16:44:02.882Z,100.00
2022-11-05T16:46:36.563Z,100.00
2022-11-05T16:49:05.457Z,100.00
2022-11-05T16:51:35.010Z,100.00
2022-11-05T16:54:09.084Z,100.00
2022-11-05T16:56:44.200Z,100.00
2022-11-05T16:59:27.769Z,100.00
2022-11-05T17:01:57.545Z,100.00
2022-11-05T17:04:26.451Z,100.00
2022-11-05T17:06:56.413Z,100.00
2022-11-05T17:09:26.045Z,100.00
2022-11-05T17:11:54.630Z,100.00
2022-11-05T17:14:23.180Z,100.00
2022-11-05T17:16:52.085Z,100.00
2022-11-05T17:19:20.657Z,100.00
2022-11-05T17:21:49.768Z,100.00
2022-11-05T17:24:18.306Z,100.00
2022-11-05T17:26:47.380Z,100.00
2022-11-05T17:29:16.101Z,100.00
2022-11-05T17:31:44.562Z,100.00
2022-11-05T17:34:12.977Z,100.00
2022-11-05T17:36:43.881Z,100.00
2022-11-05T17:39:31.214Z,100.00
2022-11-05T17:42:00.714Z,100.00
2022-11-05T17:44:29.702Z,100.00
2022-11-05T17:46:58.407Z,100.00
2022-11-05T17:49:33.121Z,100.00
2022-11-05T17:52:04.555Z,100.00
2022-11-05T17:54:33.133Z,100.00
2022-11-05T17:57:03.228Z,100.00
2022-11-05T17:59:32.290Z,100.00
2022-11-05T18:02:00.836Z,100.00
2022-11-05T18:04:30.038Z,100.00
2022-11-05T18:06:58.630Z,100.00
2022-11-05T18:09:27.501Z,100.00
2022-11-05T18:11:56.084Z,100.00
2022-11-05T18:14:24.708Z,100.00
2022-11-05T18:16:54.777Z,100.00
2022-11-05T18:19:23.248Z,100.00
2022-11-05T18:21:51.959Z,100.00
2022-11-05T18:24:21.259Z,100.00
2022-11-05T18:26:50.417Z,100.00
2022-11-05T18:29:18.904Z,100.00
2022-11-05T18:34:37.641Z,100.00
2022-11-05T18:37:12.560Z,100.00
2022-11-05T18:39:46.029Z,100.00
2022-11-05T18:42:22.292Z,100.00
2022-11-05T18:44:58.613Z,100.00
2022-11-05T18:47:27.240Z,100.00
2022-11-05T18:49:55.749Z,100.00
2022-11-05T18:52:25.917Z,100.00
2022-11-05T18:54:57.178Z,100.00
2022-11-05T18:57:46.351Z,100.00
2022-11-05T19:00:16.554Z,100.00
2022-11-05T19:02:45.125Z,100.00
2022-11-05T19:05:32.948Z,100.00
2022-11-05T19:08:12.018Z,100.00
2022-11-05T19:10:41.473Z,100.00
2022-11-05T19:13:32.986Z,100.00
2022-11-05T19:16:23.329Z,100.00
2022-11-05T19:19:13.024Z,100.00
2022-11-05T19:21:41.486Z,100.00
2022-11-05T19:24:10.528Z,100.00
2022-11-05T19:26:46.053Z,100.00
2022-11-05T19:29:16.266Z,100.00
2022-11-05T19:31:44.902Z,100.00
2022-11-05T19:34:14.163Z,100.00
2022-11-05T19:36:43.131Z,100.00
2022-11-05T19:39:14.029Z,100.00
2022-11-05T19:41:42.810Z,100.00
2022-11-05T19:44:14.740Z,100.00
2022-11-05T19:46:43.704Z,100.00
2022-11-05T19:49:12.452Z,100.00
2022-11-05T19:51:40.951Z,100.00
2022-11-05T19:54:10.409Z,100.00
2022-11-05T19:56:38.936Z,100.00
2022-11-05T19:59:07.419Z,100.00
2022-11-05T20:01:36.380Z,100.00
2022-11-05T20:04:05.971Z,100.00
2022-11-05T20:06:38.041Z,100.00
2022-11-05T20:09:24.741Z,100.00
2022-11-05T20:11:55.607Z,100.00
2022-11-05T20:14:25.196Z,100.00
2022-11-05T20:16:54.216Z,100.00
2022-11-05T20:19:23.627Z,100.00
2022-11-05T20:21:52.382Z,100.00
2022-11-05T20:24:25.356Z,100.00
2022-11-05T20:26:55.548Z,100.00
2022-11-05T20:29:29.100Z,100.00
2022-11-05T20:32:05.433Z,100.00
2022-11-05T20:34:34.683Z,100.00
2022-11-05T20:37:03.626Z,100.00
2022-11-05T20:39:32.429Z,100.00
2022-11-05T20:42:01.173Z,100.00
2022-11-05T20:44:29.862Z,100.00
2022-11-05T20:46:58.543Z,100.00
2022-11-05T20:49:27.262Z,100.00
2022-11-05T20:51:55.818Z,100.00
2022-11-05T20:54:24.984Z,100.00
2022-11-05T20:57:00.520Z,100.00
2022-11-05T20:59:29.016Z,100.00
2022-11-05T21:01:59.740Z,100.00
2022-11-05T21:04:28.711Z,100.00
2022-11-05T21:06:57.087Z,100.00
2022-11-05T21:09:25.634Z,100.00
2022-11-05T21:12:12.377Z,100.00
2022-11-05T21:14:43.940Z,100.00
2022-11-05T21:17:13.128Z,100.00
2022-11-05T21:19:41.580Z,100.00
2022-11-05T21:22:15.293Z,100.00
2022-11-05T21:24:43.847Z,100.00
2022-11-05T21:27:12.359Z,100.00
2022-11-05T21:29:40.831Z,100.00
2022-11-05T21:32:12.486Z,100.00
2022-11-05T21:34:41.190Z,100.00
2022-11-05T21:37:09.669Z,100.00
2022-11-05T21:39:38.162Z,100.00
2022-11-05T21:42:06.688Z,100.00
2022-11-05T21:44:35.217Z,100.00
2022-11-05T21:47:03.892Z,100.00
2022-11-05T21:49:34.964Z,100.00
2022-11-05T21:52:21.839Z,100.00
2022-11-05T21:55:09.865Z,100.00
2022-11-05T21:57:57.173Z,100.00
2022-11-05T22:00:25.977Z,100.00
2022-11-05T22:02:54.690Z,100.00
2022-11-05T22:05:23.408Z,100.00
2022-11-05T22:07:54.036Z,100.00
2022-11-05T22:10:22.817Z,100.00
2022-11-05T22:12:56.356Z,100.00
2022-11-05T22:15:24.813Z,100.00
2022-11-05T22:17:58.184Z,100.00
2022-11-05T22:20:26.732Z,100.00
2022-11-05T22:22:55.219Z,100.00
2022-11-05T22:25:23.802Z,100.00
2022-11-05T22:27:55.290Z,100.00
2022-11-05T22:30:23.730Z,100.00
2022-11-05T22:33:00.677Z,100.00
2022-11-05T22:35:43.893Z,100.00
2022-11-05T22:38:13.256Z,100.00
2022-11-05T22:40:42.959Z,100.00
2022-11-05T22:43:13.588Z,100.00
2022-11-05T22:45:43.240Z,100.00
2022-11-05T22:48:11.972Z,100.00
2022-11-05T22:50:40.743Z,100.00
2022-11-05T22:53:09.244Z,100.00
2022-11-05T22:55:39.919Z,100.00
2022-11-05T22:58:08.387Z,100.00
2022-11-05T23:00:38.121Z,100.00
2022-11-05T23:03:06.772Z,100.00
2022-11-05T23:05:35.619Z,100.00
2022-11-05T23:08:23.207Z,100.00
2022-11-05T23:11:10.369Z,100.00
2022-11-05T23:13:38.903Z,100.00
2022-11-05T23:16:26.974Z,100.00
2022-11-05T23:19:16.465Z,100.00
2022-11-05T23:22:03.104Z,100.00
2022-11-05T23:24:31.986Z,100.00
2022-11-05T23:27:03.373Z,100.00
2022-11-05T23:29:32.042Z,100.00
2022-11-05T23:32:18.598Z,100.00
2022-11-05T23:38:12.354Z,100.00
2022-11-05T23:40:55.650Z,100.00
2022-11-05T23:43:42.308Z,100.00
2022-11-05T23:46:29.232Z,100.00
2022-11-05T23:49:02.216Z,100.00
2022-11-05T23:51:30.894Z,100.00
2022-11-05T23:53:59.300Z,100.00
2022-11-05T23:56:30.696Z,100.00
2022-11-05T23:58:59.140Z,100.00
